createdAt,value
2022-09-13T00:01:24.119Z,18.72
2022-09-13T00:03:53.864Z,18.90
2022-09-13T00:06:23.964Z,18.96
2022-09-13T00:08:54.303Z,17.78
2022-09-13T00:11:28.636Z,18.85
2022-09-13T00:13:59.539Z,18.90
2022-09-13T00:16:31.380Z,18.94
2022-09-13T00:19:03.057Z,19.05
2022-09-13T00:21:32.814Z,19.02
2022-09-13T00:24:02.592Z,19.10
2022-09-13T00:26:34.830Z,19.12
2022-09-13T00:29:04.698Z,19.06
2022-09-13T00:31:34.457Z,19.10
2022-09-13T00:34:04.095Z,19.06
2022-09-13T00:36:33.773Z,19.12
2022-09-13T00:39:03.642Z,19.16
2022-09-13T00:41:36.399Z,19.24
2022-09-13T00:44:06.719Z,19.31
2022-09-13T00:46:41.643Z,19.39
2022-09-13T00:49:17.706Z,19.45
2022-09-13T00:51:51.848Z,19.35
2022-09-13T00:54:23.903Z,19.29
2022-09-13T00:57:01.177Z,19.39
2022-09-13T00:59:36.515Z,19.38
2022-09-13T01:02:07.269Z,19.32
2022-09-13T01:04:39.515Z,18.96
2022-09-13T01:07:12.496Z,19.36
2022-09-13T01:09:46.864Z,19.34
2022-09-13T01:12:28.531Z,19.36
2022-09-13T01:15:01.654Z,19.37
2022-09-13T01:17:33.041Z,19.31
2022-09-13T01:20:04.487Z,19.35
2022-09-13T01:23:10.913Z,19.33
2022-09-13T01:26:06.677Z,19.18
2022-09-13T01:29:00.801Z,19.21
2022-09-13T01:31:38.921Z,18.99
2022-09-13T01:34:25.239Z,19.13
2022-09-13T01:37:12.645Z,19.17
2022-09-13T01:40:00.552Z,19.21
2022-09-13T01:42:43.200Z,19.26
2022-09-13T01:45:24.730Z,19.19
2022-09-13T01:48:01.708Z,19.26
2022-09-13T01:50:42.190Z,19.27
2022-09-13T01:53:23.460Z,19.25
2022-09-13T01:56:00.676Z,19.22
2022-09-13T01:58:34.482Z,19.16
2022-09-13T02:01:10.846Z,19.08
2022-09-13T02:03:48.768Z,18.97
2022-09-13T02:06:23.067Z,19.07
2022-09-13T02:08:57.747Z,19.14
2022-09-13T02:11:27.629Z,19.09
2022-09-13T02:14:03.073Z,19.13
2022-09-13T02:16:36.844Z,19.16
2022-09-13T02:19:13.686Z,19.22
2022-09-13T02:21:46.534Z,19.19
2022-09-13T02:24:20.377Z,19.19
2022-09-13T02:26:53.353Z,19.27
2022-09-13T02:29:28.517Z,19.26
2022-09-13T02:32:00.795Z,19.17
2022-09-13T02:34:37.081Z,19.27
2022-09-13T02:37:09.765Z,19.20
2022-09-13T02:39:47.005Z,19.07
2022-09-13T02:42:22.553Z,18.93
2022-09-13T02:44:55.534Z,18.90
2022-09-13T02:47:41.430Z,18.74
2022-09-13T02:50:27.191Z,18.73
2022-09-13T02:53:05.595Z,18.75
2022-09-13T02:55:44.329Z,18.60
2022-09-13T02:58:17.027Z,18.52
2022-09-13T03:00:47.224Z,18.36
2022-09-13T03:03:19.235Z,18.37
2022-09-13T03:05:51.492Z,18.31
2022-09-13T03:08:21.837Z,18.40
2022-09-13T03:11:00.466Z,18.67
2022-09-13T03:13:46.221Z,18.76
2022-09-13T03:16:40.607Z,18.75
2022-09-13T03:19:26.012Z,18.69
2022-09-13T03:22:15.722Z,18.72
2022-09-13T03:24:55.037Z,18.67
2022-09-13T03:27:35.987Z,18.64
2022-09-13T03:30:08.866Z,18.52
2022-09-13T03:32:45.125Z,18.49
2022-09-13T03:35:24.961Z,18.47
2022-09-13T03:38:01.893Z,18.56
2022-09-13T03:40:42.673Z,18.51
2022-09-13T03:43:19.017Z,18.54
2022-09-13T03:45:52.226Z,18.45
2022-09-13T03:48:23.643Z,18.39
2022-09-13T03:50:53.928Z,18.42
2022-09-13T03:53:28.688Z,18.22
2022-09-13T03:55:58.495Z,18.26
2022-09-13T03:58:29.199Z,18.34
2022-09-13T04:00:58.858Z,18.39
2022-09-13T04:03:28.524Z,18.38
2022-09-13T04:05:58.141Z,18.47
2022-09-13T04:08:30.361Z,18.56
2022-09-13T04:11:00.756Z,18.49
2022-09-13T04:13:30.855Z,18.71
2022-09-13T04:16:03.493Z,18.67
2022-09-13T04:18:33.868Z,18.67
2022-09-13T04:21:04.721Z,18.65
2022-09-13T04:23:36.989Z,18.57
2022-09-13T04:26:07.833Z,18.51
2022-09-13T04:28:37.454Z,18.43
2022-09-13T04:31:07.358Z,18.58
2022-09-13T04:33:37.392Z,18.65
2022-09-13T04:36:07.410Z,18.75
2022-09-13T04:38:39.611Z,18.76
2022-09-13T04:41:10.833Z,18.66
2022-09-13T04:43:40.449Z,18.61
2022-09-13T04:46:10.198Z,18.66
2022-09-13T04:48:39.922Z,18.63
2022-09-13T04:51:09.950Z,18.70
2022-09-13T04:53:42.168Z,18.83
2022-09-13T04:56:14.068Z,18.85
2022-09-13T04:58:44.175Z,18.92
2022-09-13T05:01:17.622Z,19.08
2022-09-13T05:03:47.565Z,19.08
2022-09-13T05:06:19.636Z,19.07
2022-09-13T05:08:56.373Z,19.08
2022-09-13T05:11:27.152Z,18.96
2022-09-13T05:13:59.992Z,19.09
2022-09-13T05:16:32.612Z,19.19
2022-09-13T05:19:03.299Z,19.10
2022-09-13T05:21:34.350Z,19.23
2022-09-13T05:24:07.920Z,19.32
2022-09-13T05:26:38.634Z,19.30
2022-09-13T05:29:08.795Z,19.24
2022-09-13T05:31:43.151Z,19.28
2022-09-13T05:34:14.841Z,19.22
2022-09-13T05:36:45.113Z,19.24
2022-09-13T05:39:36.466Z,19.29
2022-09-13T05:42:11.719Z,19.24
2022-09-13T05:44:41.459Z,19.32
2022-09-13T05:47:13.729Z,19.35
2022-09-13T05:50:08.869Z,19.37
2022-09-13T05:52:35.387Z,19.29
2022-09-13T05:55:08.219Z,19.42
2022-09-13T05:57:39.565Z,19.40
2022-09-13T06:00:10.920Z,19.38
2022-09-13T06:02:44.596Z,19.49
2022-09-13T06:05:14.697Z,19.43
2022-09-13T06:07:45.400Z,19.42
2022-09-13T06:10:18.000Z,19.48
2022-09-13T06:12:47.665Z,19.45
2022-09-13T06:15:17.411Z,19.41
2022-09-13T06:17:47.122Z,19.56
2022-09-13T06:20:16.982Z,19.54
2022-09-13T06:22:47.679Z,19.60
2022-09-13T06:25:23.237Z,19.58
2022-09-13T06:27:53.022Z,19.70
2022-09-13T06:30:22.745Z,19.76
2022-09-13T06:32:52.485Z,19.79
2022-09-13T06:35:24.152Z,19.87
2022-09-13T06:37:58.849Z,19.97
2022-09-13T06:40:31.121Z,19.92
2022-09-13T06:43:04.709Z,20.04
2022-09-13T06:45:35.617Z,19.99
2022-09-13T06:48:05.700Z,20.03
2022-09-13T06:50:35.579Z,19.88
2022-09-13T06:53:05.959Z,19.97
2022-09-13T06:55:38.264Z,19.97
2022-09-13T06:58:08.989Z,20.04
2022-09-13T07:00:38.780Z,19.97
2022-09-13T07:03:11.670Z,19.97
2022-09-13T07:05:43.332Z,19.86
2022-09-13T07:08:13.948Z,19.88
2022-09-13T07:10:50.227Z,19.82
2022-09-13T07:13:20.952Z,19.59
2022-09-13T07:15:51.765Z,19.69
2022-09-13T07:18:21.527Z,19.70
2022-09-13T07:20:51.243Z,19.62
2022-09-13T07:23:25.709Z,19.69
2022-09-13T07:26:02.177Z,19.75
2022-09-13T07:28:38.141Z,19.85
2022-09-13T07:31:09.994Z,19.89
2022-09-13T07:33:40.764Z,19.81
2022-09-13T07:36:12.102Z,19.82
2022-09-13T07:38:44.700Z,19.86
2022-09-13T07:41:18.780Z,19.90
2022-09-13T07:43:48.697Z,19.81
2022-09-13T07:46:21.441Z,19.99
2022-09-13T07:48:52.534Z,20.10
2022-09-13T07:51:23.869Z,20.20
2022-09-13T07:53:57.543Z,20.20
2022-09-13T07:56:32.293Z,20.24
2022-09-13T07:59:04.942Z,20.30
2022-09-13T08:01:38.298Z,20.39
2022-09-13T08:04:10.373Z,20.50
2022-09-13T08:06:43.373Z,20.56
2022-09-13T08:09:14.359Z,20.47
2022-09-13T08:11:49.666Z,20.52
2022-09-13T08:14:21.418Z,20.50
2022-09-13T08:16:52.277Z,20.57
2022-09-13T08:19:22.254Z,20.44
2022-09-13T08:21:52.909Z,20.58
2022-09-13T08:24:24.240Z,20.67
2022-09-13T08:26:57.625Z,20.73
2022-09-13T08:29:28.007Z,20.78
2022-09-13T08:31:57.669Z,20.79
2022-09-13T08:34:27.438Z,20.80
2022-09-13T08:36:57.182Z,20.84
2022-09-13T08:39:29.254Z,20.85
2022-09-13T08:42:17.762Z,20.91
2022-09-13T08:44:50.518Z,20.83
2022-09-13T08:47:43.229Z,20.92
2022-09-13T08:50:18.878Z,20.98
2022-09-13T08:52:54.549Z,21.04
2022-09-13T08:55:32.048Z,20.97
2022-09-13T08:58:12.077Z,21.05
2022-09-13T09:00:46.729Z,21.30
2022-09-13T09:03:28.313Z,21.53
2022-09-13T09:05:58.201Z,21.66
2022-09-13T09:08:35.947Z,21.71
2022-09-13T09:11:11.177Z,21.77
2022-09-13T09:13:52.636Z,21.75
2022-09-13T09:16:33.447Z,21.74
2022-09-13T09:19:19.403Z,21.69
2022-09-13T09:21:52.756Z,21.78
2022-09-13T09:24:25.270Z,21.84
2022-09-13T09:26:56.459Z,21.94
2022-09-13T09:29:32.815Z,22.12
2022-09-13T09:32:18.738Z,22.20
2022-09-13T09:34:59.757Z,22.23
2022-09-13T09:37:32.225Z,22.23
2022-09-13T09:40:07.535Z,22.16
2022-09-13T09:42:43.429Z,22.16
2022-09-13T09:45:28.984Z,22.11
2022-09-13T09:48:05.005Z,21.99
2022-09-13T09:50:40.653Z,21.86
2022-09-13T09:53:16.811Z,21.98
2022-09-13T09:55:50.434Z,21.98
2022-09-13T09:58:20.401Z,21.86
2022-09-13T10:00:57.928Z,22.03
2022-09-13T10:03:30.502Z,22.04
2022-09-13T10:06:08.471Z,22.08
2022-09-13T10:08:40.849Z,21.99
2022-09-13T10:11:12.616Z,22.13
2022-09-13T10:14:00.965Z,22.10
2022-09-13T10:16:37.127Z,22.05
2022-09-13T10:19:28.257Z,22.05
2022-09-13T10:22:05.782Z,22.11
2022-09-13T10:24:36.225Z,22.17
2022-09-13T10:27:07.814Z,22.16
2022-09-13T10:29:38.711Z,22.18
2022-09-13T10:32:13.734Z,22.04
2022-09-13T10:34:49.482Z,22.14
2022-09-13T10:37:22.703Z,22.18
2022-09-13T10:39:59.721Z,22.14
2022-09-13T10:42:31.624Z,22.09
2022-09-13T10:45:04.040Z,22.10
2022-09-13T10:47:42.241Z,22.10
2022-09-13T10:50:21.884Z,22.19
2022-09-13T10:52:53.535Z,22.18
2022-09-13T10:55:46.418Z,22.10
2022-09-13T10:58:20.300Z,22.09
2022-09-13T11:01:13.140Z,21.93
2022-09-13T11:04:01.115Z,21.99
2022-09-13T11:06:40.091Z,21.88
2022-09-13T11:09:17.562Z,21.76
2022-09-13T11:11:59.643Z,21.78
2022-09-13T11:14:45.465Z,21.94
2022-09-13T11:17:26.222Z,22.03
2022-09-13T11:20:16.961Z,22.15
2022-09-13T11:23:28.894Z,22.18
2022-09-13T11:26:15.616Z,22.30
2022-09-13T11:28:59.524Z,22.30
2022-09-13T11:31:41.151Z,22.21
2022-09-13T11:34:25.743Z,22.18
2022-09-13T11:37:26.227Z,22.24
2022-09-13T11:40:09.325Z,22.31
2022-09-13T11:42:49.469Z,22.51
2022-09-13T11:45:28.418Z,22.54
2022-09-13T11:48:20.956Z,22.66
2022-09-13T11:51:03.344Z,22.75
2022-09-13T11:53:54.102Z,22.69
2022-09-13T11:56:29.248Z,22.57
2022-09-13T11:59:04.180Z,22.54
2022-09-13T12:01:42.460Z,22.47
2022-09-13T12:04:20.265Z,21.91
2022-09-13T12:06:58.807Z,21.26
2022-09-13T12:09:37.582Z,20.74
2022-09-13T12:12:10.292Z,20.46
2022-09-13T12:14:46.859Z,20.20
2022-09-13T12:17:27.997Z,20.16
2022-09-13T12:20:01.845Z,20.10
2022-09-13T12:22:38.257Z,19.94
2022-09-13T12:25:21.818Z,20.44
2022-09-13T12:27:58.481Z,20.61
2022-09-13T12:30:37.789Z,20.78
2022-09-13T12:33:09.200Z,20.95
2022-09-13T12:35:46.996Z,21.11
2022-09-13T12:38:42.749Z,21.15
2022-09-13T12:41:31.753Z,21.21
2022-09-13T12:44:24.969Z,21.33
2022-09-13T12:47:18.952Z,21.31
2022-09-13T12:53:13.492Z,21.85
2022-09-13T12:56:25.300Z,21.97
2022-09-13T12:59:13.277Z,21.96
2022-09-13T13:01:48.715Z,21.97
2022-09-13T13:04:21.852Z,22.05
2022-09-13T13:06:55.343Z,22.24
2022-09-13T13:09:36.970Z,22.49
2022-09-13T13:12:11.657Z,22.60
2022-09-13T13:14:53.497Z,22.60
2022-09-13T13:17:53.789Z,22.56
2022-09-13T13:20:49.749Z,22.74
2022-09-13T13:23:27.202Z,22.87
2022-09-13T13:26:15.021Z,22.82
2022-09-13T13:29:20.805Z,22.77
2022-09-13T13:32:14.687Z,22.87
2022-09-13T13:34:47.431Z,22.91
2022-09-13T13:37:38.285Z,22.87
2022-09-13T13:40:29.633Z,22.98
2022-09-13T13:43:34.813Z,22.92
2022-09-13T13:46:32.783Z,23.00
2022-09-13T13:49:47.065Z,23.20
2022-09-13T13:52:39.244Z,23.30
2022-09-13T13:55:33.754Z,23.35
2022-09-13T13:58:06.337Z,23.40
2022-09-13T14:00:39.213Z,23.51
2022-09-13T14:03:25.964Z,23.49
2022-09-13T14:06:04.333Z,23.53
2022-09-13T14:08:52.213Z,23.61
2022-09-13T14:11:36.336Z,23.76
2022-09-13T14:14:19.159Z,23.81
2022-09-13T14:17:05.310Z,23.95
2022-09-13T14:19:44.077Z,23.77
2022-09-13T14:22:18.412Z,24.03
2022-09-13T14:24:51.271Z,23.95
2022-09-13T14:27:26.097Z,24.04
2022-09-13T14:29:58.460Z,23.91
2022-09-13T14:32:37.204Z,23.91
2022-09-13T14:35:28.218Z,24.11
2022-09-13T14:37:58.874Z,24.15
2022-09-13T14:40:30.545Z,24.36
2022-09-13T14:43:02.449Z,24.46
2022-09-13T14:45:36.575Z,24.43
2022-09-13T14:48:10.443Z,24.51
2022-09-13T14:50:46.868Z,24.57
2022-09-13T14:53:21.038Z,24.42
2022-09-13T14:55:55.638Z,24.34
2022-09-13T14:58:29.493Z,24.26
2022-09-13T15:01:03.511Z,24.22
2022-09-13T15:03:33.476Z,24.12
2022-09-13T15:06:25.249Z,24.06
2022-09-13T15:08:56.272Z,24.03
2022-09-13T15:11:32.982Z,24.10
2022-09-13T15:14:27.044Z,24.15
2022-09-13T15:17:00.993Z,24.11
2022-09-13T15:19:34.313Z,23.96
2022-09-13T15:22:15.215Z,23.97
2022-09-13T15:24:50.699Z,23.84
2022-09-13T15:27:24.888Z,23.86
2022-09-13T15:29:57.978Z,23.71
2022-09-13T15:32:34.375Z,23.70
2022-09-13T15:35:04.799Z,23.61
2022-09-13T15:37:40.790Z,23.74
2022-09-13T15:40:21.464Z,23.68
2022-09-13T15:42:55.701Z,23.67
2022-09-13T15:45:26.145Z,23.46
2022-09-13T15:47:56.950Z,23.52
2022-09-13T15:50:31.400Z,23.49
2022-09-13T15:53:05.664Z,23.61
2022-09-13T15:55:36.485Z,23.60
2022-09-13T15:58:06.163Z,23.66
2022-09-13T16:00:36.268Z,23.70
2022-09-13T16:03:08.033Z,23.75
2022-09-13T16:05:38.780Z,23.73
2022-09-13T16:08:15.533Z,23.71
2022-09-13T16:10:47.365Z,23.67
2022-09-13T16:13:20.827Z,23.51
2022-09-13T16:15:52.708Z,23.51
2022-09-13T16:18:26.032Z,23.48
2022-09-13T16:21:00.889Z,23.46
2022-09-13T16:23:33.188Z,23.35
2022-09-13T16:26:03.321Z,23.28
2022-09-13T16:28:36.863Z,23.28
2022-09-13T16:31:06.672Z,23.20
2022-09-13T16:33:38.361Z,23.16
2022-09-13T16:36:08.580Z,22.96
2022-09-13T16:38:41.064Z,22.98
2022-09-13T16:41:12.916Z,22.84
2022-09-13T16:43:42.625Z,22.85
2022-09-13T16:46:16.212Z,22.78
2022-09-13T16:48:47.138Z,22.65
2022-09-13T16:51:16.958Z,22.60
2022-09-13T16:53:55.908Z,22.70
2022-09-13T16:56:27.389Z,22.62
2022-09-13T16:58:57.439Z,22.58
2022-09-13T17:01:29.930Z,22.47
2022-09-13T17:04:00.209Z,22.42
2022-09-13T17:06:32.021Z,22.43
2022-09-13T17:09:06.629Z,22.41
2022-09-13T17:11:40.121Z,22.37
2022-09-13T17:14:17.356Z,22.35
2022-09-13T17:16:49.205Z,22.26
2022-09-13T17:19:21.468Z,22.20
2022-09-13T17:21:51.885Z,22.17
2022-09-13T17:24:24.231Z,22.07
2022-09-13T17:26:54.934Z,22.14
2022-09-13T17:29:25.458Z,22.04
2022-09-13T17:31:58.927Z,22.03
2022-09-13T17:34:32.451Z,21.89
2022-09-13T17:37:05.847Z,21.84
2022-09-13T17:39:38.217Z,21.77
2022-09-13T17:42:08.491Z,21.68
2022-09-13T17:44:38.304Z,21.57
2022-09-13T17:47:08.408Z,21.64
2022-09-13T17:49:38.149Z,21.55
2022-09-13T17:52:10.944Z,21.49
2022-09-13T17:54:44.231Z,21.45
2022-09-13T17:57:15.688Z,21.38
2022-09-13T17:59:47.360Z,21.19
2022-09-13T18:02:18.380Z,21.35
2022-09-13T18:04:48.277Z,21.23
2022-09-13T18:07:17.911Z,21.14
2022-09-13T18:09:51.149Z,21.11
2022-09-13T18:12:20.831Z,20.97
2022-09-13T18:14:52.585Z,20.84
2022-09-13T18:17:23.370Z,20.90
2022-09-13T18:19:55.146Z,20.75
2022-09-13T18:22:24.816Z,20.64
2022-09-13T18:24:57.081Z,20.64
2022-09-13T18:27:28.111Z,20.55
2022-09-13T18:29:57.936Z,20.48
2022-09-13T18:32:29.770Z,20.45
2022-09-13T18:35:01.669Z,20.38
2022-09-13T18:37:34.304Z,20.36
2022-09-13T18:40:14.058Z,20.17
2022-09-13T18:42:45.068Z,20.16
2022-09-13T18:45:16.357Z,20.15
2022-09-13T18:47:47.372Z,20.18
2022-09-13T18:50:20.082Z,20.19
2022-09-13T18:52:51.658Z,20.08
2022-09-13T18:55:27.715Z,20.07
2022-09-13T18:57:58.495Z,19.78
2022-09-13T19:00:32.058Z,19.81
2022-09-13T19:03:12.245Z,19.76
2022-09-13T19:05:43.067Z,19.73
2022-09-13T19:08:12.973Z,19.85
2022-09-13T19:10:47.931Z,19.86
2022-09-13T19:13:19.183Z,19.73
2022-09-13T19:15:55.442Z,19.77
2022-09-13T19:18:27.194Z,19.73
2022-09-13T19:21:04.569Z,19.79
2022-09-13T19:23:57.884Z,19.71
2022-09-13T19:26:32.206Z,19.63
2022-09-13T19:29:06.639Z,19.60
2022-09-13T19:31:41.571Z,19.65
2022-09-13T19:34:15.112Z,19.61
2022-09-13T19:36:45.447Z,19.53
2022-09-13T19:39:16.822Z,19.49
2022-09-13T19:41:49.358Z,19.51
2022-09-13T19:44:20.398Z,19.46
2022-09-13T19:47:00.961Z,19.14
2022-09-13T19:49:40.346Z,19.36
2022-09-13T19:52:11.306Z,19.39
2022-09-13T19:54:42.381Z,19.36
2022-09-13T19:57:14.957Z,19.41
2022-09-13T19:59:44.663Z,19.41
2022-09-13T20:02:14.971Z,19.37
2022-09-13T20:04:45.952Z,19.36
2022-09-13T20:07:15.990Z,19.27
2022-09-13T20:09:47.153Z,19.24
2022-09-13T20:12:23.699Z,19.20
2022-09-13T20:14:54.677Z,19.04
2022-09-13T20:17:26.348Z,19.12
2022-09-13T20:19:57.991Z,19.08
2022-09-13T20:22:27.699Z,18.99
2022-09-13T20:24:58.641Z,18.97
2022-09-13T20:27:32.684Z,18.98
2022-09-13T20:30:04.312Z,18.95
2022-09-13T20:32:35.263Z,18.80
2022-09-13T20:35:05.291Z,18.87
2022-09-13T20:37:34.963Z,18.84
2022-09-13T20:40:05.577Z,18.76
2022-09-13T20:42:37.887Z,18.70
2022-09-13T20:45:09.039Z,18.63
2022-09-13T20:47:39.743Z,18.52
2022-09-13T20:50:10.387Z,18.40
2022-09-13T20:52:41.010Z,18.31
2022-09-13T20:55:12.008Z,18.31
2022-09-13T20:57:44.465Z,18.37
2022-09-13T21:00:15.615Z,18.30
2022-09-13T21:02:48.290Z,18.26
2022-09-13T21:05:18.779Z,18.31
2022-09-13T21:08:01.884Z,18.26
2022-09-13T21:10:35.525Z,18.22
2022-09-13T21:13:09.773Z,18.12
2022-09-13T21:15:42.166Z,18.13
2022-09-13T21:18:11.870Z,18.04
2022-09-13T21:20:41.550Z,17.98
2022-09-13T21:23:14.856Z,17.86
2022-09-13T21:25:46.165Z,17.92
2022-09-13T21:28:18.701Z,17.85
2022-09-13T21:30:58.435Z,17.80
2022-09-13T21:33:29.900Z,17.83
2022-09-13T21:36:00.785Z,17.83
2022-09-13T21:38:34.308Z,17.89
2022-09-13T21:41:05.737Z,17.84
2022-09-13T21:43:38.369Z,17.83
2022-09-13T21:46:09.882Z,17.80
2022-09-13T21:48:39.973Z,17.79
2022-09-13T21:51:11.419Z,17.77
2022-09-13T21:53:42.157Z,17.75
2022-09-13T21:56:14.612Z,17.71
2022-09-13T21:58:51.863Z,17.71
2022-09-13T22:01:23.732Z,17.60
2022-09-13T22:03:55.074Z,17.56
2022-09-13T22:06:33.696Z,17.47
2022-09-13T22:09:07.492Z,17.51
2022-09-13T22:11:43.252Z,17.33
2022-09-13T22:14:18.667Z,17.18
2022-09-13T22:16:49.282Z,17.00
2022-09-13T22:19:22.097Z,17.04
2022-09-13T22:21:55.501Z,17.10
2022-09-13T22:24:27.393Z,17.23
2022-09-13T22:26:59.207Z,17.21
2022-09-13T22:29:35.700Z,17.23
2022-09-13T22:32:08.136Z,17.16
2022-09-13T22:34:37.805Z,17.04
2022-09-13T22:37:07.759Z,17.03
2022-09-13T22:39:38.711Z,17.00
2022-09-13T22:42:08.582Z,17.01
2022-09-13T22:44:40.841Z,17.05
2022-09-13T22:47:10.514Z,16.99
2022-09-13T22:49:40.231Z,16.96
2022-09-13T22:52:11.352Z,16.97
2022-09-13T22:54:43.064Z,17.04
2022-09-13T22:57:12.906Z,17.01
2022-09-13T22:59:45.572Z,17.00
2022-09-13T23:02:17.261Z,16.99
2022-09-13T23:04:47.934Z,16.97
2022-09-13T23:07:21.188Z,16.97
2022-09-13T23:09:50.931Z,16.92
2022-09-13T23:12:22.678Z,16.96
2022-09-13T23:14:55.003Z,16.94
2022-09-13T23:17:24.771Z,16.84
2022-09-13T23:19:59.884Z,16.74
2022-09-13T23:22:29.625Z,16.72
2022-09-13T23:25:01.508Z,16.75
2022-09-13T23:27:31.285Z,16.70
2022-09-13T23:30:03.603Z,16.66
2022-09-13T23:32:33.302Z,16.65
2022-09-13T23:35:05.065Z,16.59
2022-09-13T23:37:35.742Z,16.62
2022-09-13T23:40:05.892Z,16.46
2022-09-13T23:42:35.622Z,16.39
2022-09-13T23:45:09.494Z,16.37
2022-09-13T23:47:40.148Z,16.31
2022-09-13T23:50:10.556Z,16.30
2022-09-13T23:52:44.052Z,16.40
2022-09-13T23:55:18.161Z,16.39
2022-09-13T23:57:47.749Z,16.39
